Home > Products > Valid Products > TAF

000
FTUS41 KBUF 230300 AAC
TAFART
TAF AMD
KART 230330Z 2304/2324 02014KT P6SM BKN060 WS020/03045KT
     FM231300 01012KT P6SM VCSH OVC025=



000
FTUS41 KBUF 230300 AAA
TAFROC
TAF AMD
KROC 230320Z 2303/2324 36012KT P6SM BKN035
     FM231400 35014G22KT P6SM BKN025
     FM232200 32008KT P6SM BKN040=



000
FTUS41 KBUF 230300 AAA
TAFIAG
TAF AMD
KIAG 230320Z 2303/2324 36006KT P6SM BKN040
     FM230600 36006KT P6SM SCT025
     FM231500 33010KT P6SM SCT040
     FM232200 31006KT P6SM SKC=



000
FTUS41 KBUF 230300 AAB
TAFART
TAF AMD
KART 230320Z 2303/2324 02014KT P6SM BKN060 WS020/04040KT
     FM231300 01012KT P6SM VCSH OVC025=



000
FTUS41 KBUF 230300 AAA
TAFBUF
TAF AMD
KBUF 230320Z 2303/2324 36006KT P6SM BKN025
     FM230600 35006KT P6SM SCT025
     FM231500 35010KT P6SM BKN040
     FM232200 32006KT P6SM SCT040=



000
FTUS41 KBUF 230300 AAC
TAFJHW
TAF AMD
KJHW 230320Z 2303/2324 36008KT P6SM OVC015
     FM230600 34008KT P6SM SCT008 BKN015
     FM231400 34010KT P6SM SCT025
     FM232200 31006KT P6SM SKC
      AMD LTD TO CLD VIS AND WIND=



000
FTUS41 KBUF 230100 AAB
TAFJHW
TAF AMD
KJHW 230131Z 2302/2324 36008KT P6SM OVC025
     FM230400 34008KT P6SM SCT008 BKN015
     FM231400 34010KT P6SM SCT025
     FM232200 31006KT P6SM SKC
      AMD LTD TO CLD VIS AND WIND=



000
FTUS41 KBUF 230100 AAB
TAFJHW
TAF AMD
KJHW 230131Z 2302/2324 36008KT P6SM OVC025
     FM230400 34008KT P6SM SCT008 BKN015
     FM231400 34010KT P6SM SCT025
     FM232200 31006KT P6SM SKC
      AMD LTD TO CLD VIS AND WIND=



000
FTUS41 KBUF 230000 AAA
TAFJHW
TAF AMD
KJHW 230021Z 2300/2324 36008KT P6SM SCT006 BKN015
     FM230200 35006KT P6SM BKN006
     FM230400 34008KT P6SM BKN015
     FM231400 34010KT P6SM SCT025
     FM232200 31006KT P6SM SKC
      AMD LTD TO CLD VIS AND WIND=



000
FTUS41 KBUF 230000 AAA
TAFJHW
TAF AMD
KJHW 230021Z 2300/2324 36008KT P6SM SCT006 BKN015
     FM230200 35006KT P6SM BKN006
     FM230400 34008KT P6SM BKN015
     FM231400 34010KT P6SM SCT025
     FM232200 31006KT P6SM SKC
      AMD LTD TO CLD VIS AND WIND=



000
FTUS41 KBUF 230000 AAA
TAFART
TAF AMD
KART 230004Z 2300/2324 02012KT P6SM BKN040
     FM230200 02014KT P6SM BKN040 WS020/04040KT
     FM231200 01012KT P6SM VCSH OVC025=



000
FTUS41 KBUF 230000 AAA
TAFART
TAF AMD
KART 230004Z 2300/2324 02012KT P6SM BKN040
     FM230200 02014KT P6SM BKN040 WS020/04040KT
     FM231200 01012KT P6SM VCSH OVC025=



000
FTUS41 KBUF 222300
TAFBUF
TAF
KBUF 222321Z 2300/2324 01005KT P6SM BKN035
     FM230600 35006KT P6SM SCT025
     FM231500 35010KT P6SM BKN040
     FM232200 32006KT P6SM SCT040=



000
FTUS41 KBUF 222300
TAFIAG
TAF
KIAG 222321Z 2300/2324 36005KT P6SM BKN035
     FM230500 36006KT P6SM SCT025
     FM231500 33010KT P6SM SCT040
     FM232200 31006KT P6SM SKC=



000
FTUS41 KBUF 222300
TAFART
TAF
KART 222321Z 2300/2324 02012KT P6SM VCSH OVC025
     FM230200 02014KT P6SM BKN040 WS020/04040KT
     FM231200 01012KT P6SM VCSH OVC025=



000
FTUS41 KBUF 222300
TAFJHW
TAF
KJHW 222321Z 2300/2324 36008KT P6SM OVC006
     FM230200 35006KT 3SM BR BKN004
     FM230400 35006KT P6SM SCT004 BKN008
     FM230800 34008KT P6SM BKN015
     FM231400 34010KT P6SM SCT025
     FM232200 31006KT P6SM SKC
      AMD LTD TO CLD VIS AND WIND=



000
FTUS41 KBUF 222300
TAFROC
TAF
KROC 222321Z 2300/2324 01012KT P6SM OVC025
     FM230300 36010KT P6SM BKN035
     FM231400 35014G22KT P6SM BKN025
     FM232200 32008KT P6SM BKN040=



000
FTUS41 KBUF 222200 AAB
TAFIAG
TAF AMD
KIAG 222248Z 2223/2318 02006KT P6SM SCT025
     FM230200 36008KT P6SM BKN035=



000
FTUS41 KBUF 222200 AAB
TAFIAG
TAF AMD
KIAG 222248Z 2223/2318 02006KT P6SM SCT025
     FM230200 36008KT P6SM BKN035=



000
FTUS41 KBUF 222100 AAB
TAFART
TAF AMD
KART 222116Z 2221/2318 03014KT P6SM OVC060
     FM222300 04012KT P6SM OVC025
     FM231000 03014G20KT P6SM VCSH OVC025
     FM231200 03014G20KT P6SM -SHRA OVC020=



000
FTUS41 KBUF 222000 AAA
TAFART
TAF AMD
KART 222051Z 2221/2318 03014KT P6SM OVC020
     FM222300 04012KT P6SM OVC025
     FM231000 03014G20KT P6SM VCSH OVC025
     FM231200 03014G20KT P6SM -SHRA OVC020=



000
FTUS41 KBUF 222000 AAA
TAFJHW
TAF AMD
KJHW 222051Z 2221/2318 35008KT P6SM OVC009
     FM230100 01010KT 2SM BR OVC006
     FM230800 34008KT 5SM BR BKN008
     FM231400 34010KT P6SM BKN025
      AMD LTD TO CLD VIS AND WIND=



000
FTUS41 KBUF 222000 AAA
TAFROC
TAF AMD
KROC 222051Z 2221/2318 36010KT P6SM OVC025
     FM230100 01010KT P6SM OVC020
     FM230600 01012KT P6SM BKN025
     FM231400 35014G20KT P6SM VCSH OVC025=



000
FTUS41 KBUF 222000 AAA
TAFIAG
TAF AMD
KIAG 222051Z 2221/2318 02006KT P6SM OVC025
     FM230200 36008KT P6SM BKN035=



000
FTUS41 KBUF 222000 AAA
TAFBUF
TAF AMD
KBUF 222051Z 2221/2318 01008KT P6SM OVC015
     FM222200 02006KT P6SM OVC025
     FM230400 34007KT P6SM BKN025
     FM231400 35009KT P6SM BKN035=



000
FTUS41 KBUF 221700
TAFJHW
TAF
KJHW 221733Z 2218/2318 36011KT P6SM OVC009
     FM222300 01010KT 3SM BR OVC007
     FM230300 01010KT 2SM BR OVC007
     FM231400 35013KT 5SM BR BKN025
      AMD LTD TO CLD VIS AND WIND=



000
FTUS41 KBUF 221700
TAFART
TAF
KART 221733Z 2218/2318 03014KT P6SM OVC020
     FM222300 04013KT P6SM OVC025
     FM231000 03014G20KT P6SM VCSH OVC025
     FM231200 03014G20KT P6SM -SHRA OVC020=



000
FTUS41 KBUF 221700
TAFIAG
TAF
KIAG 221733Z 2218/2318 02012KT P6SM OVC015
     FM222300 02008KT P6SM OVC020
     FM230100 03008KT P6SM OVC025
     FM230800 36008KT P6SM BKN035=



000
FTUS41 KBUF 221700
TAFROC
TAF
KROC 221733Z 2218/2318 01013KT P6SM OVC015
     FM230200 02012KT P6SM OVC025
     FM230800 01012KT P6SM BKN025
     FM231400 35014G20KT P6SM VCSH OVC025=



000
FTUS41 KBUF 221700
TAFBUF
TAF
KBUF 221733Z 2218/2318 01010KT P6SM OVC015
     FM230000 02006KT P6SM OVC020
     FM230300 02008KT P6SM OVC025
     FM231100 34007KT P6SM BKN025
     FM231400 35009KT P6SM BKN035=



000
FTUS41 KBUF 221700
TAFBUF
TAF
KBUF 221733Z 2218/2318 01010KT P6SM OVC015
     FM230000 02006KT P6SM OVC020
     FM230300 02008KT P6SM OVC025
     FM231100 34007KT P6SM BKN025
     FM231400 35009KT P6SM BKN035=



000
FTUS41 KBUF 221700
TAFROC
TAF
KROC 221733Z 2218/2318 01013KT P6SM OVC015
     FM230200 02012KT P6SM OVC025
     FM230800 01012KT P6SM BKN025
     FM231400 35014G20KT P6SM VCSH OVC025=



000
FTUS41 KBUF 221700
TAFIAG
TAF
KIAG 221733Z 2218/2318 02012KT P6SM OVC015
     FM222300 02008KT P6SM OVC020
     FM230100 03008KT P6SM OVC025
     FM230800 36008KT P6SM BKN035=



000
FTUS41 KBUF 221700
TAFART
TAF
KART 221733Z 2218/2318 03014KT P6SM OVC020
     FM222300 04013KT P6SM OVC025
     FM231000 03014G20KT P6SM VCSH OVC025
     FM231200 03014G20KT P6SM -SHRA OVC020=



000
FTUS41 KBUF 221700
TAFJHW
TAF
KJHW 221733Z 2218/2318 36011KT P6SM OVC009
     FM222300 01010KT 3SM BR OVC007
     FM230300 01010KT 2SM BR OVC007
     FM231400 35013KT 5SM BR BKN025
      AMD LTD TO CLD VIS AND WIND=



000
FTUS41 KBUF 221500 AAA
TAFART
TAF AMD
KART 221514Z 2215/2312 04012G18KT P6SM OVC015
     FM221700 03014G21KT P6SM OVC025
     FM230000 03012KT P6SM BKN035
     FM230400 03013G20KT P6SM VCSH OVC035
     FM230900 02013G20KT 6SM -RA OVC020=



000
FTUS41 KBUF 221500 AAA
TAFROC
TAF AMD
KROC 221514Z 2215/2312 02011KT P6SM OVC015
     FM221700 01013G19KT P6SM OVC020
     FM222100 01012KT P6SM BKN025
     FM230200 01011KT P6SM OVC035
     FM230800 36012KT P6SM VCSH OVC035=



000
FTUS41 KBUF 221500 AAA
TAFIAG
TAF AMD
KIAG 221514Z 2215/2312 02011KT P6SM OVC020
     FM221900 01011KT P6SM BKN025
     FM230000 02007KT P6SM BKN035
     FM230600 35008KT P6SM BKN035=



000
FTUS41 KBUF 221500 AAA
TAFJHW
TAF AMD
KJHW 221514Z 2215/2312 36009KT P6SM -DZ OVC007
     FM221600 36011KT P6SM BKN007
     FM221900 36011KT P6SM BKN012
     FM230100 35009KT P6SM BKN035
      AMD LTD TO CLD VIS AND WIND=



000
FTUS41 KBUF 221500 AAA
TAFBUF
TAF AMD
KBUF 221514Z 2215/2312 02010KT P6SM OVC015
     FM222000 01009KT P6SM BKN025
     FM230000 02005KT P6SM BKN035
     FM230600 35006KT P6SM BKN035=



000
FTUS41 KBUF 221100
TAFJHW
TAF
KJHW 221120Z 2212/2312 36009KT 2SM -DZ BR OVC002
     FM221400 36011KT P6SM -DZ OVC007
     FM221600 36011KT P6SM BKN007
     FM221900 36011KT P6SM BKN012
     FM230100 35009KT P6SM BKN035
      AMD LTD TO CLD VIS AND WIND=



000
FTUS41 KBUF 221100
TAFBUF
TAF
KBUF 221120Z 2212/2312 02010KT P6SM OVC020
     FM222000 01009KT P6SM BKN025
     FM230000 02005KT P6SM BKN035
     FM230600 35006KT P6SM BKN035=



000
FTUS41 KBUF 221100
TAFIAG
TAF
KIAG 221120Z 2212/2312 02011KT P6SM OVC020
     FM221900 01011KT P6SM BKN025
     FM230000 02007KT P6SM BKN035
     FM230600 35008KT P6SM BKN035=



000
FTUS41 KBUF 221100
TAFART
TAF
KART 221120Z 2212/2312 03013KT P6SM OVC018
     FM221300 03013KT P6SM OVC020
     FM221600 03014G21KT P6SM OVC035
     FM230000 03012KT P6SM BKN035
     FM230400 03013G20KT P6SM VCSH OVC035
     FM230900 02013G20KT 6SM -RA OVC020=



000
FTUS41 KBUF 221100
TAFROC
TAF
KROC 221120Z 2212/2312 02012KT P6SM -DZ OVC018
     FM221300 02011KT P6SM -DZ OVC020
     FM221600 01013G19KT P6SM OVC020
     FM222100 01012KT P6SM BKN025
     FM230200 01011KT P6SM OVC035
     FM230800 36012KT P6SM VCSH OVC035=



000
FTUS41 KBUF 220800 AAB
TAFJHW
TAF AMD
KJHW 220859Z 2209/2306 02010KT 2SM -DZ BR OVC003
      TEMPO 2209/2212 1/4SM FG VV001
     FM221300 01009KT P6SM OVC003
     FM221400 01009KT P6SM OVC007
     FM221700 36010KT P6SM BKN012
     FM222300 36009KT P6SM BKN035
      AMD LTD TO CLD VIS AND WIND=



000
FTUS41 KBUF 220800 AAA
TAFART
TAF AMD
KART 220859Z 2209/2306 04013KT P6SM OVC015
     FM221300 03012KT P6SM OVC025
     FM221500 03012KT P6SM OVC040
     FM222000 03013G19KT P6SM OVC040
     FM230100 03012G22KT P6SM VCSH OVC040=



000
FTUS41 KBUF 220800 AAA
TAFBUF
TAF AMD
KBUF 220859Z 2209/2306 02010KT P6SM -DZ OVC018
     FM221200 02010KT P6SM OVC015
     FM221900 01010KT P6SM BKN025
     FM222200 01009KT P6SM BKN035=



000
FTUS41 KBUF 220800 AAA
TAFROC
TAF AMD
KROC 220859Z 2209/2306 03013G20KT P6SM -DZ OVC015
     FM221200 02012KT P6SM OVC020
     FM222000 01012G18KT P6SM BKN025
     FM222300 01013G19KT P6SM BKN035=



000
FTUS41 KBUF 220800 AAA
TAFIAG
TAF AMD
KIAG 220859Z 2209/2306 03011KT P6SM OVC020
     FM221900 02012KT P6SM BKN025
     FM222200 01010KT P6SM BKN035=



000
FTUS41 KBUF 220800 AAA
TAFJHW
TAF AMD
KJHW 220804Z 2208/2306 02010KT 2SM -DZ BR OVC003
      TEMPO 2208/2212 1/4SM FG VV001
     FM221300 01009KT P6SM OVC003
     FM221400 01009KT P6SM OVC007
     FM221700 36010KT P6SM BKN012
     FM222300 36009KT P6SM BKN035
      AMD LTD TO CLD VIS AND WIND=



000
FTUS41 KBUF 220500
TAFJHW
TAF
KJHW 220532Z 2206/2306 02007KT 2SM -DZ BR OVC003
     FM221300 01009KT P6SM OVC003
     FM221400 01009KT P6SM OVC007
     FM221700 36010KT P6SM BKN012
     FM222300 36009KT P6SM BKN035
      AMD LTD TO CLD VIS AND WIND=



000
FTUS41 KBUF 220500
TAFART
TAF
KART 220532Z 2206/2306 04015G22KT P6SM OVC015
     FM220900 04012KT P6SM OVC012
     FM221300 03012KT P6SM OVC025
     FM221500 03012KT P6SM OVC040
     FM222000 03013G19KT P6SM OVC040
     FM230100 03012G22KT P6SM VCSH OVC040=



000
FTUS41 KBUF 220500
TAFBUF
TAF
KBUF 220532Z 2206/2306 02011KT 5SM -DZ BR OVC007
     FM220800 02010KT P6SM -DZ OVC012
     FM221200 02010KT P6SM OVC012
     FM221900 01010KT P6SM BKN025
     FM222200 01009KT P6SM BKN035=



000
FTUS41 KBUF 220500
TAFIAG
TAF
KIAG 220532Z 2206/2306 03010KT P6SM -DZ SCT008 OVC015
      TEMPO 2206/2208 3SM -DZ BR
     FM221100 02010KT P6SM OVC020
     FM221900 02012KT P6SM BKN025
     FM222200 01010KT P6SM BKN035=



000
FTUS41 KBUF 220500
TAFROC
TAF
KROC 220532Z 2206/2306 05015G23KT P6SM -DZ OVC012
     FM220900 03013KT P6SM -DZ OVC012
     FM221300 02012KT P6SM OVC012
     FM222000 01012G18KT P6SM BKN025
     FM222300 01013G19KT P6SM BKN035=



000
FTUS41 KBUF 220500
TAFBUF
TAF
KBUF 220532Z 2206/2306 02011KT 5SM -DZ BR OVC007
     FM220800 02010KT P6SM -DZ OVC012
     FM221200 02010KT P6SM OVC012
     FM221900 01010KT P6SM BKN025
     FM222200 01009KT P6SM BKN035=



000
FTUS41 KBUF 220500
TAFART
TAF
KART 220532Z 2206/2306 04015G22KT P6SM OVC015
     FM220900 04012KT P6SM OVC012
     FM221300 03012KT P6SM OVC025
     FM221500 03012KT P6SM OVC040
     FM222000 03013G19KT P6SM OVC040
     FM230100 03012G22KT P6SM VCSH OVC040=



000
FTUS41 KBUF 220500
TAFROC
TAF
KROC 220532Z 2206/2306 05015G23KT P6SM -DZ OVC012
     FM220900 03013KT P6SM -DZ OVC012
     FM221300 02012KT P6SM OVC012
     FM222000 01012G18KT P6SM BKN025
     FM222300 01013G19KT P6SM BKN035=



000
FTUS41 KBUF 220500
TAFJHW
TAF
KJHW 220532Z 2206/2306 02007KT 2SM -DZ BR OVC003
     FM221300 01009KT P6SM OVC003
     FM221400 01009KT P6SM OVC007
     FM221700 36010KT P6SM BKN012
     FM222300 36009KT P6SM BKN035
      AMD LTD TO CLD VIS AND WIND=



000
FTUS41 KBUF 220500
TAFIAG
TAF
KIAG 220532Z 2206/2306 03010KT P6SM -DZ SCT008 OVC015
      TEMPO 2206/2208 3SM -DZ BR
     FM221100 02010KT P6SM OVC020
     FM221900 02012KT P6SM BKN025
     FM222200 01010KT P6SM BKN035=



000
FTUS41 KBUF 220300 AAB
TAFROC
TAF AMD
KROC 220341Z 2204/2224 03014G20KT 5SM -SHRA OVC008
     FM220600 02012KT 6SM -DZ OVC008
     FM221200 02012KT P6SM OVC015
     FM222200 02012KT P6SM OVC025=



000
FTUS41 KBUF 220300 AAB
TAFROC
TAF AMD
KROC 220341Z 2204/2224 03014G20KT 5SM -SHRA OVC008
     FM220600 02012KT 6SM -DZ OVC008
     FM221200 02012KT P6SM OVC015
     FM222200 02012KT P6SM OVC025=



000
FTUS41 KBUF 220200 AAA
TAFJHW
TAF AMD
KJHW 220251Z 2203/2224 01010KT 2SM -DZ BR OVC003
     FM221200 01008KT P6SM OVC007
     FM221700 36010KT P6SM OVC012
     FM222100 35012KT P6SM OVC020
      AMD LTD TO CLD VIS AND WIND=



000
FTUS41 KBUF 220200 AAA
TAFBUF
TAF AMD
KBUF 220251Z 2203/2224 02012KT 3SM -DZ OVC006
     FM220500 02010KT 6SM -DZ OVC008
     FM221000 01010KT P6SM OVC012
     FM222000 01010KT P6SM BKN025=



000
FTUS41 KBUF 220200 AAA
TAFIAG
TAF AMD
KIAG 220251Z 2203/2224 03014KT 5SM -DZ OVC006
     FM220500 02010KT 6SM -DZ OVC008
     FM220800 01010KT P6SM OVC012
     FM221800 01010KT P6SM BKN025=



000
FTUS41 KBUF 220200 AAA
TAFROC
TAF AMD
KROC 220251Z 2203/2224 03014G20KT 3SM -SHRA OVC005
     FM220600 02012KT 6SM -DZ OVC008
     FM221200 02012KT P6SM OVC015
     FM222200 02012KT P6SM OVC025=



000
FTUS41 KBUF 220200 AAA
TAFART
TAF AMD
KART 220251Z 2203/2224 03010KT P6SM OVC012
     FM221100 03010KT P6SM OVC025
     FM221500 03012KT P6SM OVC050=



000
FTUS41 KBUF 220200 AAA
TAFJHW
TAF AMD
KJHW 220251Z 2203/2224 01010KT 2SM -DZ BR OVC003
     FM221200 01008KT P6SM OVC007
     FM221700 36010KT P6SM OVC012
     FM222100 35012KT P6SM OVC020
      AMD LTD TO CLD VIS AND WIND=



000
FTUS41 KBUF 220200 AAA
TAFROC
TAF AMD
KROC 220251Z 2203/2224 03014G20KT 3SM -SHRA OVC005
     FM220600 02012KT 6SM -DZ OVC008
     FM221200 02012KT P6SM OVC015
     FM222200 02012KT P6SM OVC025=



000
FTUS41 KBUF 220200 AAA
TAFBUF
TAF AMD
KBUF 220251Z 2203/2224 02012KT 3SM -DZ OVC006
     FM220500 02010KT 6SM -DZ OVC008
     FM221000 01010KT P6SM OVC012
     FM222000 01010KT P6SM BKN025=



000
FTUS41 KBUF 220200 AAA
TAFIAG
TAF AMD
KIAG 220251Z 2203/2224 03014KT 5SM -DZ OVC006
     FM220500 02010KT 6SM -DZ OVC008
     FM220800 01010KT P6SM OVC012
     FM221800 01010KT P6SM BKN025=



000
FTUS41 KBUF 220200 AAA
TAFART
TAF AMD
KART 220251Z 2203/2224 03010KT P6SM OVC012
     FM221100 03010KT P6SM OVC025
     FM221500 03012KT P6SM OVC050=



000
FTUS41 KBUF 212300 CCA
TAFJHW
TAF COR
KJHW 212345Z 2200/2224 01008KT 2SM -DZ BR OVC003
     FM221200 01008KT P6SM OVC007
     FM221700 36010KT P6SM OVC012
     FM222000 35012KT P6SM BKN025
      AMD LTD TO CLD VIS AND WIND=



000
FTUS41 KBUF 212300
TAFROC
TAF
KROC 212320Z 2200/2224 03014G20KT 3SM -DZ OVC004
     FM220600 02012KT 6SM -DZ OVC008
     FM221200 02012KT P6SM OVC015
     FM222200 02012KT P6SM BKN035=



000
FTUS41 KBUF 212300
TAFJHW
TAF
KJHW 212320Z 2200/2224 36008KT 6SM -SHRA SCT004 OVC008
     FM220300 01008KT 2SM -DZ BR OVC003
     FM221200 01008KT P6SM OVC007
     FM221700 36010KT P6SM OVC012
     FM222000 35012KT P6SM BKN025
      AMD LTD TO CLD VIS AND WIND=



000
FTUS41 KBUF 212300
TAFART
TAF
KART 212320Z 2200/2224 03012KT P6SM OVC008
     FM220300 03010KT P6SM OVC012
     FM221100 03010KT P6SM OVC025
     FM221500 03012KT P6SM OVC040=



000
FTUS41 KBUF 212300
TAFIAG
TAF
KIAG 212320Z 2200/2224 03014KT 3SM -DZ OVC005
     FM220500 02010KT 6SM -DZ OVC008
     FM220900 01010KT P6SM OVC015
     FM221900 01010KT P6SM BKN025=



000
FTUS41 KBUF 212300
TAFJHW
TAF
KJHW 212320Z 2200/2224 36008KT 6SM -SHRA SCT004 OVC008
     FM220300 01008KT 2SM -DZ BR OVC003
     FM221200 01008KT P6SM OVC007
     FM221700 36010KT P6SM OVC012
     FM222000 35012KT P6SM BKN025
      AMD LTD TO CLD VIS AND WIND=



000
FTUS41 KBUF 212300
TAFART
TAF
KART 212320Z 2200/2224 03012KT P6SM OVC008
     FM220300 03010KT P6SM OVC012
     FM221100 03010KT P6SM OVC025
     FM221500 03012KT P6SM OVC040=



000
FTUS41 KBUF 212300
TAFROC
TAF
KROC 212320Z 2200/2224 03014G20KT 3SM -DZ OVC004
     FM220600 02012KT 6SM -DZ OVC008
     FM221200 02012KT P6SM OVC015
     FM222200 02012KT P6SM BKN035=



000
FTUS41 KBUF 212300
TAFBUF
TAF
KBUF 212320Z 2200/2224 02012KT 5SM -DZ OVC006
     FM220500 02010KT 6SM -DZ OVC008
     FM221000 01010KT P6SM OVC012
     FM222000 01010KT P6SM BKN025=



000
FTUS41 KBUF 212300
TAFIAG
TAF
KIAG 212320Z 2200/2224 03014KT 3SM -DZ OVC005
     FM220500 02010KT 6SM -DZ OVC008
     FM220900 01010KT P6SM OVC015
     FM221900 01010KT P6SM BKN025=



000
FTUS41 KBUF 212300
TAFBUF
TAF
KBUF 212320Z 2200/2224 02012KT 5SM -DZ OVC006
     FM220500 02010KT 6SM -DZ OVC008
     FM221000 01010KT P6SM OVC012
     FM222000 01010KT P6SM BKN025=



000
FTUS41 KBUF 212200 AAB
TAFROC
TAF AMD
KROC 212225Z 2122/2218 03014G22KT 6SM -SHRA OVC006
     FM220000 02012G18KT 5SM -DZ OVC004
     FM220600 02012KT 6SM -DZ OVC008
     FM221400 01012KT P6SM OVC015=



000
FTUS41 KBUF 212100 AAA
TAFJHW
TAF AMD
KJHW 212119Z 2121/2218 34008KT 6SM -SHRA OVC015
     FM212300 35008KT 6SM -SHRA OVC007
     FM220300 36008KT 2SM -DZ OVC003
     FM220900 01008KT 5SM -DZ OVC007
     FM221500 36010KT P6SM OVC012
      AMD LTD TO CLD VIS AND WIND=



000
FTUS41 KBUF 212100 AAB
TAFBUF
TAF AMD
KBUF 212119Z 2121/2218 02012KT 6SM -SHRA OVC006
     FM220000 02010KT 5SM -DZ OVC004
     FM220600 02010KT 6SM -DZ OVC008
     FM221200 02010KT P6SM OVC012=



000
FTUS41 KBUF 212100 AAB
TAFIAG
TAF AMD
KIAG 212119Z 2121/2218 02014KT 5SM -SHRA OVC006
     FM220000 02012KT 3SM -DZ OVC004
     FM220600 02010KT 6SM -DZ OVC008
     FM221200 01010KT P6SM OVC015=



000
FTUS41 KBUF 212100 AAA
TAFROC
TAF AMD
KROC 212119Z 2121/2218 03012KT 6SM -SHRA OVC008
     FM220000 02012KT 5SM -DZ OVC004
     FM220600 02012KT 6SM -DZ OVC008
     FM221400 01012KT P6SM OVC015=



000
FTUS41 KBUF 212100 AAB
TAFART
TAF AMD
KART 212119Z 2121/2218 04010KT P6SM VCSH OVC007
     FM212300 03010KT P6SM OVC015
     FM221200 03010KT P6SM OVC025
     FM221500 03012KT P6SM OVC040=



000
FTUS41 KBUF 211900 AAA
TAFART
TAF AMD
KART 211925Z 2119/2218 04010KT P6SM VCSH BKN008
     FM212200 03012G18KT P6SM OVC025
     FM220100 03012KT P6SM -DZ OVC015
     FM220900 03010KT P6SM -DZ OVC012
     FM221500 03013KT P6SM OVC080
     FM221700 03013KT P6SM OVC070=



000
FTUS41 KBUF 211900 AAA
TAFBUF
TAF AMD
KBUF 211915Z 2119/2218 36009KT 4SM BR VCSH BKN006 OVC012
     FM212200 01010KT P6SM VCSH OVC012
     FM220100 02009KT P6SM -DZ OVC007
     FM220400 02010KT 5SM -DZ OVC012
     FM221500 02010KT P6SM OVC012=



000
FTUS41 KBUF 211900 AAA
TAFIAG
TAF AMD
KIAG 211915Z 2119/2218 01010KT 5SM BR VCSH BKN005
     FM212200 02012KT P6SM VCSH OVC007
     FM220100 02012KT 6SM -DZ OVC007
     FM220300 02013KT 6SM -DZ OVC012
     FM221500 02012KT P6SM OVC020=



000
FTUS41 KBUF 211700
TAFBUF
TAF
KBUF 211739Z 2118/2218 35008KT 6SM BR VCSH SCT012 BKN025
     FM211900 36009KT P6SM OVC012
     FM212000 01010KT P6SM VCSH OVC012
     FM220100 02009KT P6SM -DZ OVC007
     FM220400 02010KT 5SM -DZ OVC012
     FM221500 02010KT P6SM OVC012=



000
FTUS41 KBUF 211700
TAFART
TAF
KART 211739Z 2118/2218 04010KT P6SM VCSH BKN015
     FM212100 03012G18KT P6SM OVC025
     FM220100 03012KT P6SM -DZ OVC030
     FM220900 03010KT P6SM -DZ OVC050
     FM221500 03013KT P6SM OVC080
     FM221700 03013KT P6SM OVC070=



000
FTUS41 KBUF 211700
TAFIAG
TAF
KIAG 211739Z 2118/2218 01010KT 5SM BR VCSH BKN007
     FM212000 02012KT P6SM VCSH OVC012
     FM212200 02012KT P6SM VCSH OVC007
     FM220100 02012KT 6SM -DZ OVC007
     FM220300 02013KT 6SM -DZ OVC012
     FM221500 02012KT P6SM OVC020=



000
FTUS41 KBUF 211700
TAFJHW
TAF
KJHW 211739Z 2118/2218 30007KT 6SM -SHRA OVC035
     FM212200 35009KT 6SM -SHRA OVC007
     FM220100 36009KT 6SM -DZ OVC003
     FM220600 01010KT 2SM -DZ OVC007
     FM221200 01008KT 4SM -DZ BKN003 OVC007
     FM221700 36010KT P6SM OVC012
      AMD LTD TO CLD VIS AND WIND=



000
FTUS41 KBUF 211700
TAFROC
TAF
KROC 211739Z 2118/2218 02007KT P6SM OVC012
     FM211900 02009KT P6SM VCSH OVC007
     FM220000 02013G19KT 6SM -SHRA OVC007
     FM220100 02013G19KT 5SM -SHRA OVC012
     FM220500 02013G19KT 5SM -DZ OVC012
     FM221500 02013KT P6SM OVC015=



000
FTUS41 KBUF 211500 AAB
TAFROC
TAF AMD
KROC 211511Z 2115/2212 25004KT 2SM -SHRA OVC005
     FM211700 32004KT 6SM BR VCSH OVC012
     FM211900 01009KT 6SM -SHRA BR OVC012
     FM212300 02015KT 6SM -SHRA BR OVC007=



000
FTUS41 KBUF 211500 AAA
TAFJHW
TAF AMD
KJHW 211511Z 2115/2212 01004KT 6SM BR VCSH OVC012
     FM211800 32008KT 4SM -SHRA BR OVC012
     FM212100 36011KT 4SM -SHRA BR OVC003
      AMD LTD TO CLD VIS AND WIND=



000
FTUS41 KBUF 211500 AAA
TAFIAG
TAF AMD
KIAG 211511Z 2115/2212 35008KT 6SM BR VCSH OVC012
     FM212300 02012KT 6SM -SHRA BR OVC012
     FM220600 02013KT 6SM -RADZ BR BKN012=



000
FTUS41 KBUF 211500 AAA
TAFART
TAF AMD
KART 211511Z 2115/2212 05007KT 6SM -SHRA OVC025
     FM212200 03014KT 6SM -SHRA OVC025
     FM220400 03013KT 6SM -SHRA OVC035
     FM220900 03012KT P6SM VCSH OVC007=



000
FTUS41 KBUF 211500 AAA
TAFBUF
TAF AMD
KBUF 211511Z 2115/2212 32006KT 6SM BR VCSH OVC009
     FM211800 36010KT 4SM -SHRA BR OVC012
     FM221000 02010KT 6SM -DZ BR OVC012=



000
FTUS41 KBUF 211400 AAA
TAFROC
TAF AMD
KROC 211447Z 2115/2212 25004KT 2SM -SHRA OVC005
     FM211700 32004KT 6SM BR VCSH OVC012
     FM211900 01009KT 6SM -SHRA BR OVC012
     FM212300 02015KT 6SM -SHRA BR OVC007=



000
FTUS41 KBUF 211100
TAFIAG
TAF
KIAG 211138Z 2112/2212 30006KT 4SM BR VCSH OVC015
     FM211400 35008KT 6SM -SHRA BR OVC012
     FM212300 02012KT 6SM -SHRA BR OVC012
     FM220600 02013KT 6SM -RADZ BR BKN012=



000
FTUS41 KBUF 211100
TAFART
TAF
KART 211138Z 2112/2212 VRB03KT 6SM -SHRA BR OVC040
     FM211300 06004KT 4SM -SHRA OVC030
     FM211500 06007KT 6SM -SHRA OVC020
     FM212200 03014KT 6SM -SHRA OVC025
     FM220400 03013KT 6SM -SHRA OVC035
     FM220900 03012KT P6SM VCSH OVC007=



000
FTUS41 KBUF 211100
TAFBUF
TAF
KBUF 211138Z 2112/2212 29005KT 3SM BR VCSH OVC015
     FM211400 32006KT 6SM -SHRA BR OVC012
     FM211800 36010KT 4SM -SHRA BR OVC012
     FM221000 02010KT 6SM -DZ BR OVC012=



000
FTUS41 KBUF 211100
TAFJHW
TAF
KJHW 211138Z 2112/2212 30006KT 4SM BR VCSH OVC006
     FM211300 02004KT 6SM -SHRA BR OVC008
     FM211800 32008KT 4SM -SHRA BR OVC012
     FM212100 36011KT 4SM -SHRA BR OVC003
      AMD LTD TO CLD VIS AND WIND=



000
FTUS41 KBUF 211100
TAFROC
TAF
KROC 211138Z 2112/2212 22004KT 4SM -SHRA BR OVC015
     FM211400 32004KT 6SM BR VCSH OVC012
     FM211700 01009KT 6SM -SHRA BR OVC012
     FM212300 02015KT 6SM -SHRA BR OVC007=



000
FTUS41 KBUF 211100
TAFJHW
TAF
KJHW 211138Z 2112/2212 30006KT 4SM BR VCSH OVC006
     FM211300 02004KT 6SM -SHRA BR OVC008
     FM211800 32008KT 4SM -SHRA BR OVC012
     FM212100 36011KT 4SM -SHRA BR OVC003
      AMD LTD TO CLD VIS AND WIND=



000
FTUS41 KBUF 211100
TAFROC
TAF
KROC 211138Z 2112/2212 22004KT 4SM -SHRA BR OVC015
     FM211400 32004KT 6SM BR VCSH OVC012
     FM211700 01009KT 6SM -SHRA BR OVC012
     FM212300 02015KT 6SM -SHRA BR OVC007=



000
FTUS41 KBUF 211100
TAFART
TAF
KART 211138Z 2112/2212 VRB03KT 6SM -SHRA BR OVC040
     FM211300 06004KT 4SM -SHRA OVC030
     FM211500 06007KT 6SM -SHRA OVC020
     FM212200 03014KT 6SM -SHRA OVC025
     FM220400 03013KT 6SM -SHRA OVC035
     FM220900 03012KT P6SM VCSH OVC007=



000
FTUS41 KBUF 211100
TAFIAG
TAF
KIAG 211138Z 2112/2212 30006KT 4SM BR VCSH OVC015
     FM211400 35008KT 6SM -SHRA BR OVC012
     FM212300 02012KT 6SM -SHRA BR OVC012
     FM220600 02013KT 6SM -RADZ BR BKN012=



000
FTUS41 KBUF 211100
TAFBUF
TAF
KBUF 211138Z 2112/2212 29005KT 3SM BR VCSH OVC015
     FM211400 32006KT 6SM -SHRA BR OVC012
     FM211800 36010KT 4SM -SHRA BR OVC012
     FM221000 02010KT 6SM -DZ BR OVC012=



000
FTUS41 KBUF 211000 AAA
TAFBUF
TAF AMD
KBUF 211053Z 2111/2206 32006KT 4SM BR VCSH OVC020
     FM211700 35009KT 6SM -SHRA OVC012
     FM212200 01010KT 6SM -SHRA OVC007=



000
FTUS41 KBUF 211000 AAA
TAFBUF
TAF AMD
KBUF 211053Z 2111/2206 32006KT 4SM BR VCSH OVC020
     FM211700 35009KT 6SM -SHRA OVC012
     FM212200 01010KT 6SM -SHRA OVC007=



000
FTUS41 KBUF 210900 AAA
TAFJHW
TAF AMD
KJHW 210909Z 2109/2206 25006KT 4SM BR VCSH OVC003
     FM211100 31006KT P6SM VCSH OVC003
     FM211900 33009KT 6SM -SHRA OVC012
     FM212100 36011KT 6SM -SHRA OVC003
      AMD LTD TO CLD VIS AND WIND=



000
FTUS41 KBUF 210900 AAB
TAFBUF
TAF AMD
KBUF 210909Z 2109/2206 32006KT 4SM BR VCSH BKN004 OVC015
     FM211700 35009KT 6SM -SHRA OVC012
     FM212200 01010KT 6SM -SHRA OVC007=



000
FTUS41 KBUF 210900 AAA
TAFART
TAF AMD
KART 210909Z 2109/2206 13005KT 6SM -SHRA OVC040
     FM211200 09004KT 6SM -SHRA OVC020
     FM211800 03013KT 6SM -SHRA OVC015
     FM212300 03014KT 6SM -SHRA OVC007=



000
FTUS41 KBUF 210900 AAA
TAFROC
TAF AMD
KROC 210909Z 2109/2206 VRB04KT 6SM -SHRA OVC012
     FM211700 01009KT 6SM -SHRA OVC012
     FM212000 01013KT 6SM -SHRA OVC012
     FM212100 01014KT 6SM -SHRA OVC007=



000
FTUS41 KBUF 210900 AAB
TAFIAG
TAF AMD
KIAG 210909Z 2109/2206 30006KT 3SM BR VCSH OVC010
     FM211400 35008KT 6SM -SHRA OVC008
     FM212200 01011KT 6SM -SHRA OVC007=



000
FTUS41 KBUF 210800 AAA
TAFBUF
TAF AMD
KBUF 210850Z 2109/2206 32004KT P6SM VCSH BKN008 OVC015
     FM211700 35009KT 6SM -SHRA OVC012
     FM212200 01010KT 6SM -SHRA OVC007=



000
FTUS41 KBUF 210600 AAA
TAFIAG
TAF AMD
KIAG 210655Z 2107/2206 VRB04KT P6SM VCSH OVC010
     FM211400 35008KT 6SM -SHRA OVC008
     FM212200 01011KT 6SM -SHRA OVC007=



000
FTUS41 KBUF 210500
TAFJHW
TAF
KJHW 210540Z 2106/2206 20009KT 6SM -SHRA OVC005
     FM210800 25006KT 6SM -SHRA OVC003
     FM211100 31006KT 6SM -SHRA OVC003
     FM211900 33009KT 6SM -SHRA OVC012
     FM212100 36011KT 6SM -SHRA OVC003
      AMD LTD TO CLD VIS AND WIND=



000
FTUS41 KBUF 210500
TAFROC
TAF
KROC 210540Z 2106/2206 18008KT 6SM -SHRA OVC030
     FM211000 VRB04KT 6SM -SHRA OVC012
     FM211700 01009KT 6SM -SHRA OVC012
     FM212000 01013KT 6SM -SHRA OVC012
     FM212100 01014KT 6SM -SHRA OVC007=



000
FTUS41 KBUF 210500
TAFBUF
TAF
KBUF 210540Z 2106/2206 21010KT 6SM -SHRA OVC015
     FM210800 VRB04KT 6SM -SHRA OVC012
     FM211700 35009KT 6SM -SHRA OVC012
     FM212200 01010KT 6SM -SHRA OVC007=



000
FTUS41 KBUF 210500
TAFART
TAF
KART 210540Z 2106/2206 20007KT 6SM -SHRA OVC035
     FM210900 13005KT 6SM -SHRA OVC020
     FM211200 09004KT 6SM -SHRA OVC020
     FM211800 03013KT 6SM -SHRA OVC015
     FM212300 03014KT 6SM -SHRA OVC007=



000
FTUS41 KBUF 210500
TAFIAG
TAF
KIAG 210540Z 2106/2206 19005KT 6SM -SHRA OVC012
     FM210700 VRB04KT P6SM VCSH OVC012
     FM211400 35008KT 6SM -SHRA OVC012
     FM212200 01011KT 6SM -SHRA OVC007=



000
FTUS41 KBUF 210200 AAB
TAFBUF
TAF AMD
KBUF 210259Z 2103/2124 21008KT 6SM -SHRA OVC025
     FM210800 23006KT 3SM -SHRA OVC012
     FM211500 02008KT 3SM -SHRA OVC006
     FM212300 02012KT 5SM -SHRA OVC012=



000
FTUS41 KBUF 210200 AAB
TAFROC
TAF AMD
KROC 210259Z 2103/2124 18007KT 6SM -SHRA OVC035
     FM210600 14007KT 6SM -SHRA OVC025
     FM211400 08005KT 4SM -SHRA OVC012
     FM211700 05008KT 4SM -SHRA OVC006
     FM212000 03012KT 5SM -SHRA OVC008
     FM212300 03015KT 5SM -SHRA OVC012=



000
FTUS41 KBUF 210200 AAB
TAFJHW
TAF AMD
KJHW 210259Z 2103/2124 18008KT 6SM -SHRA OVC008
     FM210500 21005KT 6SM -SHRA OVC004
     FM211000 23006KT 2SM SHRA OVC003
     FM211900 32008KT 3SM SHRA OVC007
     FM212300 01010KT 4SM -SHRA OVC007
      AMD LTD TO CLD VIS AND WIND=



000
FTUS41 KBUF 210200 AAB
TAFIAG
TAF AMD
KIAG 210259Z 2103/2124 19008KT 6SM -SHRA OVC025
     FM210700 VRB03KT 5SM -SHRA OVC012
     FM211200 01004KT 3SM -SHRA OVC006
     FM212000 03013KT 5SM -SHRA OVC007
     FM212300 03014KT 5SM -SHRA OVC012=



000
FTUS41 KBUF 210200 AAA
TAFART
TAF AMD
KART 210259Z 2103/2124 16004KT P6SM OVC045
     FM210800 13004KT 6SM -SHRA OVC040
     FM211300 07007KT 6SM -SHRA OVC030
     FM211900 03010KT 6SM -SHRA OVC020=



000
FTUS41 KBUF 210200 AAA
TAFART
TAF AMD
KART 210259Z 2103/2124 16004KT P6SM OVC045
     FM210800 13004KT 6SM -SHRA OVC040
     FM211300 07007KT 6SM -SHRA OVC030
     FM211900 03010KT 6SM -SHRA OVC020=



000
FTUS41 KBUF 210200 AAB
TAFBUF
TAF AMD
KBUF 210259Z 2103/2124 21008KT 6SM -SHRA OVC025
     FM210800 23006KT 3SM -SHRA OVC012
     FM211500 02008KT 3SM -SHRA OVC006
     FM212300 02012KT 5SM -SHRA OVC012=



000
FTUS41 KBUF 210200 AAB
TAFROC
TAF AMD
KROC 210259Z 2103/2124 18007KT 6SM -SHRA OVC035
     FM210600 14007KT 6SM -SHRA OVC025
     FM211400 08005KT 4SM -SHRA OVC012
     FM211700 05008KT 4SM -SHRA OVC006
     FM212000 03012KT 5SM -SHRA OVC008
     FM212300 03015KT 5SM -SHRA OVC012=



000
FTUS41 KBUF 210200 AAB
TAFJHW
TAF AMD
KJHW 210259Z 2103/2124 18008KT 6SM -SHRA OVC008
     FM210500 21005KT 6SM -SHRA OVC004
     FM211000 23006KT 2SM SHRA OVC003
     FM211900 32008KT 3SM SHRA OVC007
     FM212300 01010KT 4SM -SHRA OVC007
      AMD LTD TO CLD VIS AND WIND=



000
FTUS41 KBUF 210200 AAB
TAFIAG
TAF AMD
KIAG 210259Z 2103/2124 19008KT 6SM -SHRA OVC025
     FM210700 VRB03KT 5SM -SHRA OVC012
     FM211200 01004KT 3SM -SHRA OVC006
     FM212000 03013KT 5SM -SHRA OVC007
     FM212300 03014KT 5SM -SHRA OVC012=



000
FTUS41 KBUF 210200 AAA
TAFIAG
TAF AMD
KIAG 210208Z 2102/2124 19008KT 6SM -SHRA OVC025
     FM210900 VRB03KT 5SM -SHRA OVC012
     FM211200 01004KT 3SM -SHRA OVC006
     FM212000 03013KT 5SM -SHRA OVC007
     FM212300 03014KT 5SM -SHRA OVC012=



000
FTUS41 KBUF 210200 AAA
TAFJHW
TAF AMD
KJHW 210208Z 2102/2124 18008KT 6SM -SHRA OVC015
     FM210500 21005KT 6SM -SHRA OVC004
     FM211000 23006KT 2SM SHRA OVC003
     FM211900 32008KT 3SM SHRA OVC007
     FM212300 01010KT 4SM -SHRA OVC007
      AMD LTD TO CLD VIS AND WIND=



000
FTUS41 KBUF 210200 AAA
TAFROC
TAF AMD
KROC 210208Z 2102/2124 18007KT 6SM -SHRA OVC035
     FM210800 14007KT 6SM -SHRA OVC025
     FM211400 08005KT 4SM -SHRA OVC012
     FM211700 05008KT 4SM -SHRA OVC006
     FM212000 03012KT 5SM -SHRA OVC008
     FM212300 03015KT 5SM -SHRA OVC012=



000
FTUS41 KBUF 210200 AAA
TAFBUF
TAF AMD
KBUF 210208Z 2102/2124 21008KT 6SM -SHRA OVC025
     FM211100 23006KT 3SM -SHRA OVC012
     FM211500 02008KT 3SM -SHRA OVC006
     FM212300 02012KT 5SM -SHRA OVC012=



000
FTUS41 KBUF 210200 AAA
TAFJHW
TAF AMD
KJHW 210208Z 2102/2124 18008KT 6SM -SHRA OVC015
     FM210500 21005KT 6SM -SHRA OVC004
     FM211000 23006KT 2SM SHRA OVC003
     FM211900 32008KT 3SM SHRA OVC007
     FM212300 01010KT 4SM -SHRA OVC007
      AMD LTD TO CLD VIS AND WIND=



000
FTUS41 KBUF 210200 AAA
TAFIAG
TAF AMD
KIAG 210208Z 2102/2124 19008KT 6SM -SHRA OVC025
     FM210900 VRB03KT 5SM -SHRA OVC012
     FM211200 01004KT 3SM -SHRA OVC006
     FM212000 03013KT 5SM -SHRA OVC007
     FM212300 03014KT 5SM -SHRA OVC012=



000
FTUS41 KBUF 210200 AAA
TAFBUF
TAF AMD
KBUF 210208Z 2102/2124 21008KT 6SM -SHRA OVC025
     FM211100 23006KT 3SM -SHRA OVC012
     FM211500 02008KT 3SM -SHRA OVC006
     FM212300 02012KT 5SM -SHRA OVC012=



000
FTUS41 KBUF 210200 AAA
TAFROC
TAF AMD
KROC 210208Z 2102/2124 18007KT 6SM -SHRA OVC035
     FM210800 14007KT 6SM -SHRA OVC025
     FM211400 08005KT 4SM -SHRA OVC012
     FM211700 05008KT 4SM -SHRA OVC006
     FM212000 03012KT 5SM -SHRA OVC008
     FM212300 03015KT 5SM -SHRA OVC012=



000
FTUS41 KBUF 202300
TAFIAG
TAF
KIAG 202333Z 2100/2124 20009KT 6SM -SHRA OVC035
     FM210200 19008KT 6SM -SHRA OVC025
     FM210900 VRB03KT 5SM -SHRA OVC012
     FM211200 01004KT 3SM -SHRA OVC006
     FM212000 03013KT 5SM -SHRA OVC007
     FM212300 03014KT 5SM -SHRA OVC012=



000
FTUS41 KBUF 202300
TAFART
TAF
KART 202333Z 2100/2124 16004KT P6SM OVC045
     FM210800 13004KT 6SM -SHRA OVC040
     FM211300 07007KT 6SM -SHRA OVC030
     FM211900 03010KT 6SM -SHRA OVC020=



000
FTUS41 KBUF 202300
TAFBUF
TAF
KBUF 202333Z 2100/2124 19008KT 6SM -SHRA OVC035
     FM210400 18005KT 6SM -SHRA OVC025
     FM211100 23006KT 3SM -SHRA OVC012
     FM211500 02008KT 3SM -SHRA OVC006
     FM212300 02012KT 5SM -SHRA OVC012=



000
FTUS41 KBUF 202300
TAFROC
TAF
KROC 202333Z 2100/2124 15006KT 6SM -SHRA OVC050
     FM210400 18007KT 6SM -SHRA OVC035
     FM210800 14007KT 6SM -SHRA OVC025
     FM211400 08005KT 4SM -SHRA OVC012
     FM211700 05008KT 4SM -SHRA OVC006
     FM212000 03012KT 5SM -SHRA OVC008
     FM212300 03015KT 5SM -SHRA OVC012=



000
FTUS41 KBUF 202300
TAFJHW
TAF
KJHW 202333Z 2100/2124 18007KT 6SM -SHRA OVC035
     FM210200 18008KT 6SM -SHRA OVC020
     FM210700 21005KT 6SM -SHRA OVC004
     FM211000 23006KT 2SM SHRA OVC003
     FM211900 32008KT 3SM SHRA OVC007
     FM212300 01010KT 4SM -SHRA OVC007
      AMD LTD TO CLD VIS AND WIND=



000
FTUS41 KBUF 202100 AAB
TAFBUF
TAF AMD
KBUF 202118Z 2021/2118 22008KT P6SM -SHRA OVC045
     FM210200 19008KT P6SM VCSH OVC035
     FM210600 18007KT 6SM -SHRA OVC025
     FM211000 23006KT 3SM -SHRA BR OVC012
     FM211400 02007KT 3SM -SHRA BR OVC006=



000
FTUS41 KBUF 202100 AAB
TAFIAG
TAF AMD
KIAG 202118Z 2021/2118 22009KT P6SM -SHRA OVC035
     FM210200 19008KT P6SM VCSH OVC025
     FM210600 18007KT 6SM -SHRA OVC020
     FM210900 VRB03KT 4SM -SHRA BR OVC012
     FM211200 02006KT 3SM -SHRA BR OVC006
     FM211600 04010KT 3SM -SHRA BR OVC006=



000
FTUS41 KBUF 202100 AAA
TAFART
TAF AMD
KART 202118Z 2021/2118 19008KT P6SM VCSH OVC045
     FM202300 13006KT P6SM OVC060
     FM210600 15004KT P6SM OVC045
     FM210800 12004KT 6SM -SHRA OVC040
     FM211300 07007KT 6SM -SHRA OVC030=



000
FTUS41 KBUF 202100 AAA
TAFJHW
TAF AMD
KJHW 202118Z 2021/2118 19009KT P6SM -SHRA OVC050
     FM210100 18008KT 4SM SHRA BR OVC020
     FM210400 18007KT 6SM -SHRA BR OVC007
     FM210700 21005KT 5SM -SHRA BR OVC004
     FM211000 23006KT 2SM -SHRA BR OVC003
     FM211400 30007KT 2SM -SHRA BR OVC003
      AMD LTD TO CLD VIS AND WIND=



000
FTUS41 KBUF 202100 AAA
TAFROC
TAF AMD
KROC 202118Z 2021/2118 18010KT P6SM OVC070
     FM210100 19006KT P6SM VCSH OVC050
     FM210300 18007KT P6SM -SHRA OVC045
     FM210800 14007KT 6SM -SHRA OVC025
     FM211300 08005KT 4SM -SHRA OVC012
     FM211600 05008KT 4SM -SHRA OVC007=



000
FTUS41 KBUF 201900 AAA
TAFBUF
TAF AMD
KBUF 201901Z 2019/2118 23013G18KT P6SM OVC070
     FM202300 19008KT P6SM -SHRA OVC045
     FM210200 19008KT P6SM VCSH OVC035
     FM210600 18007KT 6SM -SHRA OVC025
     FM211000 23006KT 3SM -SHRA BR OVC012
     FM211400 02007KT 3SM -SHRA BR OVC006=



000
FTUS41 KBUF 201800 AAA
TAFIAG
TAF AMD
KIAG 201859Z 2019/2118 22013KT P6SM SCT025 OVC060
     FM202300 18009KT P6SM -SHRA OVC035
     FM210200 19008KT P6SM VCSH OVC025
     FM210600 18007KT 6SM -SHRA OVC020
     FM210900 VRB03KT 4SM -SHRA BR OVC012
     FM211200 02006KT 3SM -SHRA BR OVC006
     FM211600 04010KT 3SM -SHRA BR OVC006=



000
FTUS41 KBUF 201700
TAFROC
TAF
KROC 201736Z 2018/2118 20010KT P6SM OVC070
     FM210100 19006KT P6SM VCSH OVC050
     FM210300 18007KT P6SM -SHRA OVC045
     FM210800 14007KT 6SM -SHRA OVC025
     FM211300 08005KT 4SM -SHRA OVC012
     FM211600 05008KT 4SM -SHRA OVC007=



000
FTUS41 KBUF 201700
TAFIAG
TAF
KIAG 201736Z 2018/2118 22013KT P6SM OVC025
     FM202300 18009KT P6SM -SHRA OVC035
     FM210200 19008KT P6SM VCSH OVC025
     FM210600 18007KT 6SM -SHRA OVC020
     FM210900 VRB03KT 4SM -SHRA BR OVC012
     FM211200 02006KT 3SM -SHRA BR OVC006
     FM211600 04010KT 3SM -SHRA BR OVC006=



000
FTUS41 KBUF 201700
TAFART
TAF
KART 201736Z 2018/2118 VRB03KT P6SM VCSH OVC045
     FM202000 18005KT P6SM OVC050
     FM202300 13006KT P6SM OVC060
     FM210600 15004KT P6SM OVC045
     FM210800 12004KT 6SM -SHRA OVC040
     FM211300 07007KT 6SM -SHRA OVC030=



000
FTUS41 KBUF 201700
TAFBUF
TAF
KBUF 201736Z 2018/2118 20013KT P6SM OVC080
     FM202300 19008KT P6SM -SHRA OVC045
     FM210200 19008KT P6SM VCSH OVC035
     FM210600 18007KT 6SM -SHRA OVC025
     FM211000 23006KT 3SM -SHRA BR OVC012
     FM211400 02007KT 3SM -SHRA BR OVC006=



000
FTUS41 KBUF 201700
TAFJHW
TAF
KJHW 201736Z 2018/2118 19009KT P6SM OVC080
     FM202200 19009KT P6SM -SHRA OVC050
     FM210100 18008KT 4SM SHRA BR OVC020
     FM210400 18007KT 6SM -SHRA BR OVC007
     FM210700 21005KT 5SM -SHRA BR OVC004
     FM211000 23006KT 2SM -SHRA BR OVC003
     FM211400 30007KT 2SM -SHRA BR OVC003
      AMD LTD TO CLD VIS AND WIND=



000
FTUS41 KBUF 201500 AAA
TAFIAG
TAF AMD
KIAG 201509Z 2015/2112 19010KT P6SM OVC080
     FM201800 21014KT P6SM VCSH OVC060
     FM210000 20012KT 4SM SHRA OVC020
     FM210600 20007KT 4SM SHRA OVC007
     FM210800 24006KT 4SM SHRA OVC007
     FM211100 29005KT 4SM SHRA OVC007=



000
FTUS41 KBUF 201500 AAA
TAFART
TAF AMD
KART 201509Z 2015/2112 18006KT P6SM OVC090
     FM202300 17005KT P6SM VCSH OVC045
     FM210400 18008KT 6SM -SHRA OVC030
     FM210600 15008KT 4SM SHRA OVC015
     FM210900 12008KT 4SM SHRA OVC025=



000
FTUS41 KBUF 201500 AAA
TAFROC
TAF AMD
KROC 201509Z 2015/2112 21009KT P6SM OVC100
     FM210000 19009KT 6SM -SHRA OVC040
     FM210300 18010KT 6SM -SHRA OVC025
     FM210500 17010KT 4SM SHRA OVC020=



000
FTUS41 KBUF 201500 AAA
TAFBUF
TAF AMD
KBUF 201509Z 2015/2112 19010KT P6SM OVC100
     FM201800 21013KT P6SM VCSH OVC060
     FM210000 19011KT 4SM SHRA OVC020
     FM210600 21009KT 4SM SHRA OVC007
     FM211100 25006KT 4SM SHRA OVC007=



000
FTUS41 KBUF 201500 AAA
TAFJHW
TAF AMD
KJHW 201509Z 2015/2112 19013KT P6SM VCSH OVC080
     FM202300 19010KT 6SM -SHRA OVC030
     FM210300 19013KT 4SM SHRA OVC007
     FM211000 24005KT 4SM SHRA OVC007
      AMD LTD TO CLD VIS AND WIND=



000
FTUS41 KBUF 201100
TAFIAG
TAF
KIAG 201133Z 2012/2112 VRB03KT P6SM VCSH OVC090
     FM201700 21014KT P6SM VCSH OVC070
     FM202100 21013G21KT 6SM -SHRA OVC035
     FM210200 20012KT 4SM SHRA OVC020
     FM210600 20007KT 4SM SHRA OVC007
     FM210800 24006KT 4SM SHRA OVC007
     FM211100 29005KT 4SM SHRA OVC007=



000
FTUS41 KBUF 201100
TAFJHW
TAF
KJHW 201133Z 2012/2112 17008KT P6SM OVC100
     FM201500 21013KT P6SM OVC080
     FM201800 21010G16KT P6SM VCSH OVC035
     FM202300 19010KT 6SM -SHRA OVC030
     FM210300 19013KT 4SM SHRA OVC007
     FM211000 24005KT 4SM SHRA OVC007
      AMD LTD TO CLD VIS AND WIND=



000
FTUS41 KBUF 201100
TAFBUF
TAF
KBUF 201133Z 2012/2112 19008KT P6SM FEW035 OVC100
     FM201500 21011G18KT P6SM VCSH OVC090
     FM202100 20011G18KT 6SM -SHRA OVC035
     FM210200 19011KT 4SM SHRA OVC020
     FM210600 21009KT 4SM SHRA OVC007
     FM211100 25006KT 4SM SHRA OVC007=



000
FTUS41 KBUF 201100
TAFROC
TAF
KROC 201133Z 2012/2112 21006KT P6SM OVC100
     FM201800 22010KT P6SM VCSH OVC080
     FM210000 19009KT 6SM -SHRA OVC040
     FM210300 18010KT 6SM -SHRA OVC025
     FM210500 17010KT 4SM SHRA OVC020=



000
FTUS41 KBUF 201100
TAFART
TAF
KART 201133Z 2012/2112 18006KT P6SM OVC080
     FM202300 17005KT P6SM VCSH OVC045
     FM210400 18008KT 6SM -SHRA OVC030
     FM210600 15008KT 4SM SHRA OVC015
     FM210900 12008KT 4SM SHRA OVC025=



000
FTUS41 KBUF 200900 AAA
TAFJHW
TAF AMD
KJHW 200907Z 2009/2106 20005KT P6SM OVC100
     FM201300 20012KT P6SM OVC090
     FM202100 21010G16KT P6SM OVC035
     FM202300 19010KT 6SM -SHRA OVC030
     FM210000 18011KT 4SM SHRA OVC025
     FM210300 19013KT 4SM SHRA OVC007
      AMD LTD TO CLD VIS AND WIND=



000
FTUS41 KBUF 200900 AAA
TAFBUF
TAF AMD
KBUF 200907Z 2009/2106 16005KT P6SM BKN035 OVC100
     FM201500 21011G18KT P6SM OVC090
     FM202300 20011G18KT 6SM -SHRA OVC035
     FM210000 20011G17KT 6SM -SHRA OVC025
     FM210200 19011KT 4SM SHRA OVC020=



000
FTUS41 KBUF 200900 AAA
TAFART
TAF AMD
KART 200907Z 2009/2106 16005KT P6SM OVC100
     FM201600 19008KT P6SM OVC045
     FM202300 17005KT P6SM VCSH OVC045
     FM210400 18008KT 6SM -SHRA OVC030=



000
FTUS41 KBUF 200900 AAA
TAFROC
TAF AMD
KROC 200907Z 2009/2106 23005KT P6SM BKN035 OVC100
     FM201100 20009KT P6SM OVC110
     FM202200 20009KT P6SM VCSH OVC050
     FM210000 19009KT 6SM -SHRA OVC040
     FM210300 18010KT 6SM -SHRA OVC025
     FM210500 17010KT 4SM SHRA OVC020=



000
FTUS41 KBUF 200900 AAA
TAFIAG
TAF AMD
KIAG 200907Z 2009/2106 16005KT P6SM FEW040 OVC100
     FM201600 21013KT P6SM OVC080
     FM202100 21013G21KT P6SM OVC035
     FM202300 20013G21KT 6SM -SHRA OVC030
     FM210100 20013KT 6SM -SHRA OVC020
     FM210200 20012KT 4SM SHRA OVC020=



000
FTUS41 KBUF 200500
TAFROC
TAF
KROC 200540Z 2006/2106 20006KT P6SM SCT035 BKN120
     FM200700 20007KT P6SM BKN035 BKN100
     FM201100 20009KT P6SM BKN110
     FM202100 20009KT P6SM VCSH OVC050
     FM202300 19009KT 6SM -SHRA OVC045
     FM210300 18010KT 6SM -SHRA OVC025=



000
FTUS41 KBUF 200500
TAFBUF
TAF
KBUF 200540Z 2006/2106 18006KT P6SM BKN035 BKN100
     FM201700 22013KT P6SM OVC080
     FM202000 21011KT P6SM VCSH OVC060
     FM202100 21010G16KT 6SM -SHRA OVC040
     FM210000 20011KT 6SM -SHRA OVC025=



000
FTUS41 KBUF 200500
TAFJHW
TAF
KJHW 200540Z 2006/2106 20009KT P6SM BKN100
     FM201700 21014KT P6SM OVC070
     FM202100 21010KT P6SM VCSH OVC035
     FM202300 19010KT 6SM -SHRA OVC030
     FM210300 19013KT 6SM -SHRA OVC007
      AMD LTD TO CLD VIS AND WIND=



000
FTUS41 KBUF 200500
TAFART
TAF
KART 200540Z 2006/2106 VRB03KT P6SM BKN130
     FM201000 18006KT P6SM OVC100
     FM201800 19008KT P6SM VCSH OVC045
     FM210100 17006KT 6SM -SHRA OVC040
     FM210400 18008KT 6SM -SHRA OVC030=



000
FTUS41 KBUF 200500
TAFIAG
TAF
KIAG 200540Z 2006/2106 19005KT P6SM OVC090
     FM201600 21013KT P6SM OVC080
     FM201900 21014KT P6SM VCSH OVC060
     FM202100 21013KT 6SM -SHRA OVC035
     FM210100 20013KT 6SM -SHRA OVC020=



    US Dept of Commerce
    National Oceanic and Atmospheric Administration
    National Weather Service
    1325 East West Highway
    Silver Spring, MD 20910
    Page Author: NWS Internet Services Team
Disclaimer
Information Quality
Credits
Glossary
Privacy Policy
Freedom of Information Act (FOIA)
About Us
Career Opportunities